createdAt,value
2023-04-08T00:00:56.483Z,0.00
2023-04-08T00:01:56.572Z,0.00
2023-04-08T00:02:56.590Z,0.00
2023-04-08T00:03:56.735Z,0.00
2023-04-08T00:04:56.546Z,0.00
2023-04-08T00:05:56.460Z,0.00
2023-04-08T00:06:56.452Z,0.00
2023-04-08T00:07:56.458Z,0.00
2023-04-08T00:08:56.473Z,0.00
2023-04-08T00:09:56.440Z,0.00
2023-04-08T00:10:56.438Z,0.00
2023-04-08T00:11:56.432Z,0.00
2023-04-08T00:12:56.426Z,0.00
2023-04-08T00:13:56.422Z,0.00
2023-04-08T00:14:56.419Z,0.00
2023-04-08T00:15:56.416Z,0.00
2023-04-08T00:16:56.434Z,0.00
2023-04-08T00:17:56.510Z,0.00
2023-04-08T00:18:56.398Z,0.00
2023-04-08T00:19:56.396Z,0.00
2023-04-08T00:20:56.388Z,0.00
2023-04-08T00:21:56.392Z,0.00
2023-04-08T00:22:56.383Z,0.00
2023-04-08T00:23:56.380Z,0.00
2023-04-08T00:24:56.390Z,0.00
2023-04-08T00:25:56.369Z,0.00
2023-04-08T00:26:56.369Z,0.00
2023-04-08T00:27:56.359Z,0.00
2023-04-08T00:28:56.352Z,0.00
2023-04-08T00:29:56.350Z,0.00
2023-04-08T00:30:56.395Z,0.00
2023-04-08T00:31:56.356Z,0.00
2023-04-08T00:32:56.406Z,0.00
2023-04-08T00:33:56.330Z,0.00
2023-04-08T00:34:56.326Z,0.00
2023-04-08T00:35:56.338Z,0.00
2023-04-08T00:36:56.329Z,0.00
2023-04-08T00:37:56.316Z,0.00
2023-04-08T00:38:56.310Z,0.00
2023-04-08T00:39:56.310Z,0.00
2023-04-08T00:40:56.318Z,0.00
2023-04-08T00:41:56.327Z,0.00
2023-04-08T00:42:56.291Z,0.00
2023-04-08T00:43:56.286Z,0.00
2023-04-08T00:44:56.289Z,0.00
2023-04-08T00:45:56.356Z,0.00
2023-04-08T00:46:56.271Z,0.00
2023-04-08T00:47:56.293Z,0.00
2023-04-08T00:48:56.263Z,0.00
2023-04-08T00:49:56.258Z,0.00
2023-04-08T00:50:56.255Z,0.00
2023-04-08T00:51:56.252Z,0.00
2023-04-08T00:52:56.242Z,0.00
2023-04-08T00:53:56.238Z,0.00
2023-04-08T00:54:56.232Z,0.00
2023-04-08T00:55:56.233Z,0.00
2023-04-08T00:56:56.251Z,0.00
2023-04-08T00:57:56.225Z,0.00
2023-04-08T00:58:56.229Z,0.00
2023-04-08T00:59:56.219Z,0.00
2023-04-08T01:00:56.207Z,0.00
2023-04-08T01:01:56.270Z,0.00
2023-04-08T01:02:56.319Z,0.00
2023-04-08T01:03:56.408Z,0.00
2023-04-08T01:04:56.189Z,0.00
2023-04-08T01:05:56.191Z,0.00
2023-04-08T01:06:56.181Z,0.00
2023-04-08T01:07:56.183Z,0.00
2023-04-08T01:08:56.171Z,0.00
2023-04-08T01:09:56.168Z,0.00
2023-04-08T01:10:56.168Z,0.00
2023-04-08T01:11:56.158Z,0.00
2023-04-08T01:12:56.179Z,0.00
2023-04-08T01:13:56.150Z,0.00
2023-04-08T01:14:56.148Z,0.00
2023-04-08T01:15:56.164Z,0.00
2023-04-08T01:16:56.136Z,0.00
2023-04-08T01:17:56.203Z,0.00
2023-04-08T01:18:56.127Z,0.00
2023-04-08T01:19:56.121Z,0.00
2023-04-08T01:20:56.116Z,0.00
2023-04-08T01:21:56.115Z,0.00
2023-04-08T01:22:56.111Z,0.00
2023-04-08T01:23:56.106Z,0.00
2023-04-08T01:24:56.103Z,0.00
2023-04-08T01:25:56.109Z,0.00
2023-04-08T01:26:56.096Z,0.00
2023-04-08T01:27:56.087Z,0.00
2023-04-08T01:28:56.102Z,0.00
2023-04-08T01:29:56.082Z,0.00
2023-04-08T01:30:56.084Z,0.00
2023-04-08T01:31:56.075Z,0.00
2023-04-08T01:32:56.140Z,0.00
2023-04-08T01:33:56.061Z,0.00
2023-04-08T01:34:56.054Z,0.00
2023-04-08T01:35:56.545Z,0.00
2023-04-08T01:36:57.962Z,0.00
2023-04-08T01:37:56.047Z,0.00
2023-04-08T01:38:56.042Z,0.00
2023-04-08T01:39:56.038Z,0.00
2023-04-08T01:40:56.034Z,0.00
2023-04-08T01:41:56.031Z,0.00
2023-04-08T01:42:56.023Z,0.00
2023-04-08T01:43:56.017Z,0.00
2023-04-08T01:44:56.036Z,0.00
2023-04-08T01:45:56.013Z,0.00
2023-04-08T01:46:56.074Z,0.00
2023-04-08T01:47:56.041Z,0.00
2023-04-08T01:48:56.000Z,0.00
2023-04-08T01:49:55.988Z,0.00
2023-04-08T01:50:55.992Z,0.00
2023-04-08T01:51:55.986Z,0.00
2023-04-08T01:52:55.996Z,0.00
2023-04-08T01:53:55.974Z,0.00
2023-04-08T01:54:55.978Z,0.00
2023-04-08T01:55:55.965Z,0.00
2023-04-08T01:56:55.967Z,0.00
2023-04-08T01:57:55.965Z,0.00
2023-04-08T01:58:55.952Z,0.00
2023-04-08T01:59:55.956Z,0.00
2023-04-08T02:00:55.968Z,0.00
2023-04-08T02:01:56.027Z,0.00
2023-04-08T02:02:56.214Z,0.00
2023-04-08T02:03:56.017Z,0.00
2023-04-08T02:04:55.932Z,0.00
2023-04-08T02:05:55.920Z,0.00
2023-04-08T02:06:55.919Z,0.00
2023-04-08T02:07:55.915Z,0.00
2023-04-08T02:08:55.908Z,0.00
2023-04-08T02:09:55.902Z,0.00
2023-04-08T02:10:55.903Z,0.00
2023-04-08T02:11:55.893Z,0.00
2023-04-08T02:12:55.895Z,0.00
2023-04-08T02:13:55.883Z,0.00
2023-04-08T02:14:55.880Z,0.00
2023-04-08T02:15:55.898Z,0.00
2023-04-08T02:16:55.898Z,0.00
2023-04-08T02:17:56.071Z,0.00
2023-04-08T02:18:55.869Z,0.00
2023-04-08T02:19:55.859Z,0.00
2023-04-08T02:20:55.861Z,0.00
2023-04-08T02:21:55.848Z,0.00
2023-04-08T02:22:55.843Z,0.00
2023-04-08T02:23:55.841Z,0.00
2023-04-08T02:24:55.852Z,0.00
2023-04-08T02:25:55.845Z,0.00
2023-04-08T02:26:55.839Z,0.00
2023-04-08T02:27:55.820Z,0.00
2023-04-08T02:28:55.819Z,0.00
2023-04-08T02:29:55.811Z,0.00
2023-04-08T02:30:55.825Z,0.00
2023-04-08T02:31:55.931Z,0.00
2023-04-08T02:32:55.939Z,0.00
2023-04-08T02:33:55.798Z,0.00
2023-04-08T02:34:55.796Z,0.00
2023-04-08T02:35:55.824Z,0.00
2023-04-08T02:36:55.783Z,0.00
2023-04-08T02:37:55.775Z,0.00
2023-04-08T02:38:55.775Z,0.00
2023-04-08T02:39:55.772Z,0.00
2023-04-08T02:40:55.765Z,0.00
2023-04-08T02:41:55.766Z,0.00
2023-04-08T02:42:55.756Z,0.00
2023-04-08T02:43:55.755Z,0.00
2023-04-08T02:44:55.751Z,0.00
2023-04-08T02:45:55.827Z,0.00
2023-04-08T02:46:55.745Z,0.00
2023-04-08T02:47:55.781Z,0.00
2023-04-08T02:48:55.760Z,0.00
2023-04-08T02:49:55.722Z,0.00
2023-04-08T02:50:55.732Z,0.00
2023-04-08T02:51:55.727Z,0.00
2023-04-08T02:52:55.713Z,0.00
2023-04-08T02:53:55.707Z,0.00
2023-04-08T02:54:55.706Z,0.00
2023-04-08T02:55:55.695Z,0.00
2023-04-08T02:56:55.697Z,0.00
2023-04-08T02:57:55.699Z,0.00
2023-04-08T02:58:55.683Z,0.00
2023-04-08T02:59:55.688Z,0.00
2023-04-08T03:00:55.705Z,0.00
2023-04-08T03:01:55.719Z,0.00
2023-04-08T03:02:55.807Z,0.00
2023-04-08T03:03:55.720Z,0.00
2023-04-08T03:04:55.678Z,0.00
2023-04-08T03:05:55.654Z,0.00
2023-04-08T03:06:55.653Z,0.00
2023-04-08T03:07:55.644Z,0.00
2023-04-08T03:08:55.638Z,0.00
2023-04-08T03:09:55.732Z,0.00
2023-04-08T03:10:55.640Z,0.00
2023-04-08T03:11:55.623Z,0.00
2023-04-08T03:12:55.624Z,0.00
2023-04-08T03:13:55.618Z,0.00
2023-04-08T03:14:55.611Z,0.00
2023-04-08T03:15:55.607Z,0.00
2023-04-08T03:16:55.705Z,0.00
2023-04-08T03:17:55.670Z,0.00
2023-04-08T03:18:55.596Z,0.00
2023-04-08T03:19:55.592Z,0.00
2023-04-08T03:20:55.608Z,0.00
2023-04-08T03:21:55.580Z,0.00
2023-04-08T03:22:55.579Z,0.00
2023-04-08T03:23:55.572Z,0.00
2023-04-08T03:24:55.568Z,0.00
2023-04-08T03:25:55.563Z,0.00
2023-04-08T03:26:55.567Z,0.00
2023-04-08T03:27:55.553Z,0.00
2023-04-08T03:28:55.552Z,0.00
2023-04-08T03:29:55.544Z,0.00
2023-04-08T03:30:55.560Z,0.00
2023-04-08T03:31:55.602Z,0.00
2023-04-08T03:32:55.577Z,0.00
2023-04-08T03:33:55.527Z,0.00
2023-04-08T03:34:55.525Z,0.00
2023-04-08T03:35:55.601Z,0.00
2023-04-08T03:36:55.606Z,0.00
2023-04-08T03:37:55.513Z,0.00
2023-04-08T03:38:55.513Z,0.00
2023-04-08T03:39:55.505Z,0.00
2023-04-08T03:40:55.700Z,0.00
2023-04-08T03:41:55.492Z,0.00
2023-04-08T03:42:55.489Z,0.00
2023-04-08T03:43:55.487Z,0.00
2023-04-08T03:44:55.486Z,0.00
2023-04-08T03:45:55.535Z,0.00
2023-04-08T03:46:55.472Z,0.00
2023-04-08T03:47:55.516Z,0.00
2023-04-08T03:48:55.463Z,0.00
2023-04-08T03:49:55.480Z,0.00
2023-04-08T03:50:55.469Z,0.00
2023-04-08T03:51:55.459Z,0.00
2023-04-08T03:52:55.476Z,0.00
2023-04-08T03:53:55.452Z,0.00
2023-04-08T03:54:55.434Z,0.00
2023-04-08T03:55:55.429Z,0.00
2023-04-08T03:56:55.428Z,0.00
2023-04-08T03:57:55.419Z,0.00
2023-04-08T03:58:55.428Z,0.00
2023-04-08T03:59:55.411Z,0.00
2023-04-08T04:00:55.421Z,0.00
2023-04-08T04:01:55.482Z,0.00
2023-04-08T04:02:55.509Z,0.00
2023-04-08T04:03:55.574Z,0.00
2023-04-08T04:04:55.450Z,0.00
2023-04-08T04:05:55.384Z,0.00
2023-04-08T04:06:55.381Z,0.00
2023-04-08T04:07:55.393Z,0.00
2023-04-08T04:08:55.403Z,0.00
2023-04-08T04:09:55.364Z,0.00
2023-04-08T04:10:55.366Z,0.00
2023-04-08T04:11:55.358Z,0.00
2023-04-08T04:12:55.357Z,0.00
2023-04-08T04:13:55.346Z,0.00
2023-04-08T04:14:55.347Z,0.00
2023-04-08T04:15:55.416Z,0.00
2023-04-08T04:16:55.340Z,0.00
2023-04-08T04:17:55.405Z,0.00
2023-04-08T04:18:55.402Z,0.00
2023-04-08T04:19:55.321Z,0.00
2023-04-08T04:20:55.321Z,0.00
2023-04-08T04:21:55.310Z,0.00
2023-04-08T04:22:55.310Z,0.00
2023-04-08T04:23:55.315Z,0.00
2023-04-08T04:24:55.316Z,0.00
2023-04-08T04:25:55.297Z,0.00
2023-04-08T04:26:55.288Z,0.00
2023-04-08T04:27:55.292Z,0.00
2023-04-08T04:28:55.282Z,0.00
2023-04-08T04:29:55.274Z,0.00
2023-04-08T04:30:56.626Z,0.00
2023-04-08T04:31:55.270Z,0.00
2023-04-08T04:32:55.294Z,0.00
2023-04-08T04:33:55.284Z,0.00
2023-04-08T04:34:55.250Z,0.00
2023-04-08T04:35:55.275Z,0.00
2023-04-08T04:36:55.243Z,0.00
2023-04-08T04:37:55.237Z,0.00
2023-04-08T04:38:55.560Z,0.00
2023-04-08T04:39:55.227Z,0.00
2023-04-08T04:40:55.645Z,0.00
2023-04-08T04:41:55.222Z,0.00
2023-04-08T04:42:55.225Z,0.00
2023-04-08T04:43:55.209Z,0.00
2023-04-08T04:44:55.206Z,0.00
2023-04-08T04:45:55.197Z,0.00
2023-04-08T04:46:55.220Z,0.00
2023-04-08T04:47:55.224Z,0.00
2023-04-08T04:48:55.186Z,0.00
2023-04-08T04:49:55.179Z,0.00
2023-04-08T04:50:55.176Z,0.00
2023-04-08T04:51:55.172Z,0.00
2023-04-08T04:52:55.166Z,0.00
2023-04-08T04:53:55.162Z,0.00
2023-04-08T04:54:55.158Z,0.00
2023-04-08T04:55:55.150Z,0.00
2023-04-08T04:56:55.169Z,0.00
2023-04-08T04:57:55.143Z,0.00
2023-04-08T04:58:55.146Z,0.00
2023-04-08T04:59:55.184Z,0.00
2023-04-08T05:00:55.141Z,0.00
2023-04-08T05:01:55.182Z,0.00
2023-04-08T05:02:55.211Z,0.00
2023-04-08T05:03:55.123Z,0.00
2023-04-08T05:04:55.192Z,0.00
2023-04-08T05:05:55.121Z,0.00
2023-04-08T05:06:55.108Z,0.00
2023-04-08T05:07:55.099Z,0.00
2023-04-08T05:08:55.101Z,0.00
2023-04-08T05:09:55.089Z,0.00
2023-04-08T05:10:55.087Z,0.00
2023-04-08T05:11:55.101Z,0.00
2023-04-08T05:12:55.115Z,0.00
2023-04-08T05:13:55.087Z,0.00
2023-04-08T05:14:55.078Z,0.00
2023-04-08T05:15:55.119Z,0.00
2023-04-08T05:16:55.071Z,0.00
2023-04-08T05:17:55.115Z,0.00
2023-04-08T05:18:55.057Z,0.00
2023-04-08T05:19:55.054Z,0.00
2023-04-08T05:20:55.048Z,0.00
2023-04-08T05:21:55.041Z,0.00
2023-04-08T05:22:55.041Z,0.00
2023-04-08T05:23:55.061Z,0.00
2023-04-08T05:24:55.031Z,0.00
2023-04-08T05:25:55.024Z,0.00
2023-04-08T05:26:55.022Z,0.00
2023-04-08T05:27:55.021Z,5.63
2023-04-08T05:28:55.033Z,5.63
2023-04-08T05:29:55.019Z,5.63
2023-04-08T05:30:55.006Z,5.63
2023-04-08T05:31:55.037Z,5.63
2023-04-08T05:32:55.599Z,5.63
2023-04-08T05:33:55.010Z,5.63
2023-04-08T05:34:54.985Z,5.63
2023-04-08T05:35:55.030Z,5.63
2023-04-08T05:36:54.978Z,5.63
2023-04-08T05:37:54.970Z,5.63
2023-04-08T05:38:54.977Z,5.63
2023-04-08T05:39:54.978Z,5.63
2023-04-08T05:40:54.956Z,5.63
2023-04-08T05:41:54.955Z,5.63
2023-04-08T05:42:54.946Z,5.63
2023-04-08T05:43:54.946Z,5.63
2023-04-08T05:44:55.052Z,11.25
2023-04-08T05:45:54.930Z,11.25
2023-04-08T05:46:54.954Z,11.25
2023-04-08T05:47:54.948Z,11.25
2023-04-08T05:48:54.918Z,11.25
2023-04-08T05:49:54.913Z,11.25
2023-04-08T05:50:54.906Z,11.25
2023-04-08T05:51:54.904Z,11.25
2023-04-08T05:52:54.899Z,11.25
2023-04-08T05:53:54.901Z,11.25
2023-04-08T05:54:54.889Z,11.25
2023-04-08T05:55:54.888Z,11.25
2023-04-08T05:56:54.876Z,16.88
2023-04-08T05:57:54.889Z,16.88
2023-04-08T05:58:54.868Z,16.88
2023-04-08T05:59:54.879Z,16.88
2023-04-08T06:00:54.879Z,16.88
2023-04-08T06:01:54.927Z,11.25
2023-04-08T06:02:55.075Z,11.25
2023-04-08T06:03:54.977Z,5.63
2023-04-08T06:04:54.875Z,5.63
2023-04-08T06:05:54.832Z,5.63
2023-04-08T06:06:54.824Z,5.63
2023-04-08T06:07:54.825Z,5.63
2023-04-08T06:08:54.816Z,5.63
2023-04-08T06:09:54.813Z,11.25
2023-04-08T06:10:54.809Z,11.25
2023-04-08T06:11:54.801Z,11.25
2023-04-08T06:12:54.794Z,11.25
2023-04-08T06:13:54.801Z,5.63
2023-04-08T06:14:54.785Z,5.63
2023-04-08T06:15:54.784Z,11.25
2023-04-08T06:16:54.865Z,5.63
2023-04-08T06:17:54.803Z,11.25
2023-04-08T06:18:54.765Z,11.25
2023-04-08T06:19:54.764Z,11.25
2023-04-08T06:20:54.757Z,11.25
2023-04-08T06:21:54.752Z,11.25
2023-04-08T06:22:54.749Z,5.63
2023-04-08T06:23:54.744Z,5.63
2023-04-08T06:24:54.738Z,5.63
2023-04-08T06:25:54.734Z,5.63
2023-04-08T06:26:54.732Z,5.63
2023-04-08T06:27:54.724Z,11.25
2023-04-08T06:28:54.718Z,11.25
2023-04-08T06:29:54.716Z,11.25
2023-04-08T06:30:54.710Z,11.25
2023-04-08T06:31:54.755Z,11.25
2023-04-08T06:32:54.817Z,5.63
2023-04-08T06:33:54.697Z,5.63
2023-04-08T06:34:54.692Z,5.63
2023-04-08T06:35:54.715Z,5.63
2023-04-08T06:36:54.690Z,5.63
2023-04-08T06:37:54.691Z,0.00
2023-04-08T06:38:54.679Z,0.00
2023-04-08T06:39:54.833Z,0.00
2023-04-08T06:40:54.668Z,0.00
2023-04-08T06:41:54.665Z,0.00
2023-04-08T06:42:54.664Z,0.00
2023-04-08T06:43:54.657Z,0.00
2023-04-08T06:44:54.649Z,0.00
2023-04-08T06:45:54.662Z,0.00
2023-04-08T06:46:54.644Z,0.00
2023-04-08T06:47:54.695Z,0.00
2023-04-08T06:48:54.657Z,0.00
2023-04-08T06:49:54.629Z,0.00
2023-04-08T06:50:54.616Z,0.00
2023-04-08T06:51:54.615Z,5.63
2023-04-08T06:52:54.605Z,5.63
2023-04-08T06:53:54.601Z,0.00
2023-04-08T06:54:54.600Z,0.00
2023-04-08T06:55:54.596Z,5.63
2023-04-08T06:56:54.587Z,0.00
2023-04-08T06:57:54.584Z,5.63
2023-04-08T06:58:54.588Z,5.63
2023-04-08T06:59:54.573Z,5.63
2023-04-08T07:00:54.586Z,5.63
2023-04-08T07:01:54.717Z,5.63
2023-04-08T07:02:54.653Z,5.63
2023-04-08T07:03:54.616Z,5.63
2023-04-08T07:04:54.572Z,5.63
2023-04-08T07:05:54.769Z,5.63
2023-04-08T07:06:54.543Z,11.25
2023-04-08T07:07:54.535Z,11.25
2023-04-08T07:08:54.527Z,11.25
2023-04-08T07:09:54.528Z,11.25
2023-04-08T07:10:54.523Z,11.25
2023-04-08T07:11:54.521Z,11.25
2023-04-08T07:12:54.516Z,5.63
2023-04-08T07:13:54.518Z,11.25
2023-04-08T07:14:54.499Z,11.25
2023-04-08T07:15:54.497Z,11.25
2023-04-08T07:16:54.598Z,16.88
2023-04-08T07:17:54.504Z,11.25
2023-04-08T07:18:54.484Z,11.25
2023-04-08T07:19:54.477Z,5.63
2023-04-08T07:20:54.590Z,5.63
2023-04-08T07:21:54.462Z,5.63
2023-04-08T07:22:54.463Z,5.63
2023-04-08T07:23:54.457Z,5.63
2023-04-08T07:24:54.454Z,5.63
2023-04-08T07:25:54.447Z,5.63
2023-04-08T07:26:54.441Z,5.63
2023-04-08T07:27:54.443Z,5.63
2023-04-08T07:28:54.433Z,5.63
2023-04-08T07:29:54.428Z,5.63
2023-04-08T07:30:54.433Z,5.63
2023-04-08T07:31:54.416Z,5.63
2023-04-08T07:32:54.444Z,5.63
2023-04-08T07:33:54.409Z,5.63
2023-04-08T07:34:54.404Z,5.63
2023-04-08T07:35:54.543Z,5.63
2023-04-08T07:36:54.424Z,5.63
2023-04-08T07:37:54.387Z,11.25
2023-04-08T07:38:54.378Z,11.25
2023-04-08T07:39:54.395Z,11.25
2023-04-08T07:40:54.379Z,11.25
2023-04-08T07:41:54.366Z,11.25
2023-04-08T07:42:54.369Z,11.25
2023-04-08T07:43:54.364Z,11.25
2023-04-08T07:44:54.350Z,11.25
2023-04-08T07:45:54.826Z,11.25
2023-04-08T07:46:54.346Z,11.25
2023-04-08T07:47:54.404Z,11.25
2023-04-08T07:48:54.346Z,11.25
2023-04-08T07:49:54.422Z,5.63
2023-04-08T07:51:08.815Z,5.63
2023-04-08T07:51:54.314Z,5.63
2023-04-08T07:52:54.349Z,11.25
2023-04-08T07:53:54.313Z,11.25
2023-04-08T07:54:54.314Z,11.25
2023-04-08T07:55:54.343Z,11.25
2023-04-08T07:56:54.289Z,11.25
2023-04-08T07:57:54.294Z,11.25
2023-04-08T07:58:54.575Z,11.25
2023-04-08T07:59:54.291Z,11.25
2023-04-08T08:00:54.279Z,11.25
2023-04-08T08:01:54.379Z,11.25
2023-04-08T08:02:54.310Z,11.25
2023-04-08T08:03:54.747Z,11.25
2023-04-08T08:04:54.270Z,11.25
2023-04-08T08:05:54.249Z,11.25
2023-04-08T08:06:54.243Z,11.25
2023-04-08T08:07:54.234Z,11.25
2023-04-08T08:08:54.251Z,11.25
2023-04-08T08:09:54.229Z,11.25
2023-04-08T08:10:54.219Z,11.25
2023-04-08T08:11:54.231Z,11.25
2023-04-08T08:12:54.216Z,11.25
2023-04-08T08:13:54.217Z,11.25
2023-04-08T08:14:54.200Z,11.25
2023-04-08T08:15:54.230Z,16.88
2023-04-08T08:16:54.199Z,11.25
2023-04-08T08:17:54.219Z,11.25
2023-04-08T08:18:54.187Z,11.25
2023-04-08T08:19:54.181Z,11.25
2023-04-08T08:20:54.173Z,11.25
2023-04-08T08:21:54.165Z,11.25
2023-04-08T08:22:57.517Z,11.25
2023-04-08T08:23:54.155Z,11.25
2023-04-08T08:24:54.174Z,5.63
2023-04-08T08:25:54.144Z,5.63
2023-04-08T08:26:54.138Z,11.25
2023-04-08T08:27:54.135Z,11.25
2023-04-08T08:28:54.132Z,11.25
2023-04-08T08:29:54.130Z,11.25
2023-04-08T08:30:54.154Z,11.25
2023-04-08T08:31:54.118Z,5.63
2023-04-08T08:32:54.216Z,5.63
2023-04-08T08:33:54.106Z,5.63
2023-04-08T08:34:54.099Z,5.63
2023-04-08T08:35:54.121Z,5.63
2023-04-08T08:36:54.099Z,11.25
2023-04-08T08:37:54.092Z,11.25
2023-04-08T08:38:54.096Z,11.25
2023-04-08T08:39:54.075Z,5.63
2023-04-08T08:40:54.091Z,11.25
2023-04-08T08:41:54.065Z,11.25
2023-04-08T08:42:54.078Z,16.88
2023-04-08T08:43:54.056Z,16.88
2023-04-08T08:44:54.052Z,16.88
2023-04-08T08:45:54.044Z,11.25
2023-04-08T08:46:54.125Z,11.25
2023-04-08T08:47:54.081Z,16.88
2023-04-08T08:48:54.026Z,11.25
2023-04-08T08:49:54.025Z,16.88
2023-04-08T08:50:54.024Z,16.88
2023-04-08T08:51:54.016Z,11.25
2023-04-08T08:52:54.012Z,11.25
2023-04-08T08:53:54.326Z,11.25
2023-04-08T08:54:53.999Z,11.25
2023-04-08T08:56:16.232Z,16.88
2023-04-08T08:56:54.006Z,16.88
2023-04-08T08:57:53.991Z,16.88
2023-04-08T08:58:53.989Z,16.88
2023-04-08T08:59:53.977Z,16.88
2023-04-08T09:00:53.968Z,16.88
2023-04-08T09:01:53.988Z,11.25
2023-04-08T09:02:54.104Z,11.25
2023-04-08T09:03:54.348Z,11.25
2023-04-08T09:04:54.072Z,11.25
2023-04-08T09:05:53.946Z,11.25
2023-04-08T09:06:53.934Z,11.25
2023-04-08T09:07:53.930Z,11.25
2023-04-08T09:08:53.924Z,11.25
2023-04-08T09:09:53.921Z,11.25
2023-04-08T09:10:53.912Z,11.25
2023-04-08T09:11:53.915Z,11.25
2023-04-08T09:12:53.931Z,11.25
2023-04-08T09:13:53.912Z,16.88
2023-04-08T09:14:53.894Z,16.88
2023-04-08T09:15:53.914Z,16.88
2023-04-08T09:16:53.978Z,16.88
2023-04-08T09:17:53.919Z,16.88
2023-04-08T09:18:53.873Z,16.88
2023-04-08T09:19:53.872Z,16.88
2023-04-08T09:20:53.896Z,22.50
2023-04-08T09:21:53.863Z,22.50
2023-04-08T09:22:53.866Z,22.50
2023-04-08T09:23:54.054Z,22.50
2023-04-08T09:24:53.846Z,22.50
2023-04-08T09:25:53.848Z,22.50
2023-04-08T09:26:54.292Z,22.50
2023-04-08T09:27:53.831Z,22.50
2023-04-08T09:28:53.850Z,28.13
2023-04-08T09:29:53.830Z,28.13
2023-04-08T09:30:53.827Z,28.13
2023-04-08T09:31:53.843Z,33.75
2023-04-08T09:32:53.890Z,39.38
2023-04-08T09:33:53.807Z,45.00
2023-04-08T09:34:53.797Z,33.75
2023-04-08T09:35:53.831Z,45.00
2023-04-08T09:36:53.793Z,39.38
2023-04-08T09:37:53.783Z,45.00
2023-04-08T09:38:53.785Z,45.00
2023-04-08T09:39:53.775Z,28.13
2023-04-08T09:40:53.767Z,28.13
2023-04-08T09:41:53.775Z,28.13
2023-04-08T09:42:53.755Z,28.13
2023-04-08T09:43:53.891Z,22.50
2023-04-08T09:44:53.764Z,22.50
2023-04-08T09:45:53.781Z,22.50
2023-04-08T09:46:53.746Z,22.50
2023-04-08T09:47:53.786Z,16.88
2023-04-08T09:48:53.727Z,16.88
2023-04-08T09:49:53.716Z,16.88
2023-04-08T09:50:53.723Z,16.88
2023-04-08T09:51:53.715Z,16.88
2023-04-08T09:52:53.709Z,16.88
2023-04-08T09:53:53.700Z,16.88
2023-04-08T09:54:53.702Z,16.88
2023-04-08T09:55:53.694Z,16.88
2023-04-08T09:56:53.687Z,16.88
2023-04-08T09:57:53.686Z,16.88
2023-04-08T09:58:53.722Z,16.88
2023-04-08T09:59:53.701Z,16.88
2023-04-08T10:00:53.722Z,22.50
2023-04-08T10:01:53.884Z,22.50
2023-04-08T10:02:53.894Z,22.50
2023-04-08T10:03:53.946Z,22.50
2023-04-08T10:04:53.704Z,22.50
2023-04-08T10:05:53.640Z,28.13
2023-04-08T10:06:53.645Z,28.13
2023-04-08T10:07:53.697Z,28.13
2023-04-08T10:08:53.664Z,28.13
2023-04-08T10:09:53.665Z,28.13
2023-04-08T10:10:53.626Z,28.13
2023-04-08T10:11:53.643Z,28.13
2023-04-08T10:12:53.612Z,28.13
2023-04-08T10:13:53.704Z,28.13
2023-04-08T10:14:53.600Z,28.13
2023-04-08T10:15:53.595Z,28.13
2023-04-08T10:16:53.641Z,28.13
2023-04-08T10:17:53.666Z,28.13
2023-04-08T10:18:53.583Z,28.13
2023-04-08T10:19:53.574Z,28.13
2023-04-08T10:20:53.572Z,28.13
2023-04-08T10:21:53.563Z,28.13
2023-04-08T10:22:53.563Z,28.13
2023-04-08T10:23:53.557Z,33.75
2023-04-08T10:24:53.555Z,33.75
2023-04-08T10:25:53.548Z,33.75
2023-04-08T10:26:53.543Z,33.75
2023-04-08T10:27:53.537Z,33.75
2023-04-08T10:28:53.537Z,39.38
2023-04-08T10:29:53.533Z,45.00
2023-04-08T10:30:53.529Z,39.38
2023-04-08T10:31:53.561Z,39.38
2023-04-08T10:32:53.628Z,39.38
2023-04-08T10:33:53.512Z,39.38
2023-04-08T10:34:53.511Z,39.38
2023-04-08T10:35:53.613Z,33.75
2023-04-08T10:36:53.497Z,39.38
2023-04-08T10:37:53.499Z,45.00
2023-04-08T10:38:53.484Z,39.38
2023-04-08T10:39:53.476Z,56.25
2023-04-08T10:40:53.480Z,45.00
2023-04-08T10:41:53.466Z,45.00
2023-04-08T10:42:53.462Z,45.00
2023-04-08T10:43:53.461Z,50.63
2023-04-08T10:44:53.457Z,45.00
2023-04-08T10:45:53.477Z,39.38
2023-04-08T10:46:53.443Z,45.00
2023-04-08T10:47:53.498Z,45.00
2023-04-08T10:48:53.460Z,45.00
2023-04-08T10:49:53.438Z,39.38
2023-04-08T10:50:53.426Z,39.38
2023-04-08T10:51:53.432Z,33.75
2023-04-08T10:52:53.420Z,39.38
2023-04-08T10:53:53.417Z,33.75
2023-04-08T10:54:53.412Z,33.75
2023-04-08T10:55:53.400Z,39.38
2023-04-08T10:56:53.409Z,33.75
2023-04-08T10:57:53.390Z,33.75
2023-04-08T10:58:53.394Z,33.75
2023-04-08T10:59:53.387Z,33.75
2023-04-08T11:00:53.396Z,33.75
2023-04-08T11:01:53.450Z,33.75
2023-04-08T11:02:53.500Z,33.75
2023-04-08T11:03:53.876Z,28.13
2023-04-08T11:04:53.409Z,28.13
2023-04-08T11:05:53.357Z,28.13
2023-04-08T11:06:53.354Z,28.13
2023-04-08T11:07:53.415Z,28.13
2023-04-08T11:08:53.349Z,28.13
2023-04-08T11:09:53.338Z,22.50
2023-04-08T11:10:53.338Z,22.50
2023-04-08T11:11:53.329Z,22.50
2023-04-08T11:12:53.329Z,22.50
2023-04-08T11:13:54.078Z,22.50
2023-04-08T11:14:53.323Z,22.50
2023-04-08T11:15:53.399Z,22.50
2023-04-08T11:16:53.314Z,22.50
2023-04-08T11:17:53.311Z,22.50
2023-04-08T11:18:53.302Z,22.50
2023-04-08T11:19:53.295Z,22.50
2023-04-08T11:20:53.317Z,22.50
2023-04-08T11:21:53.294Z,22.50
2023-04-08T11:22:53.289Z,22.50
2023-04-08T11:23:54.066Z,22.50
2023-04-08T11:24:53.277Z,22.50
2023-04-08T11:25:53.269Z,22.50
2023-04-08T11:26:53.268Z,22.50
2023-04-08T11:27:53.266Z,22.50
2023-04-08T11:28:53.260Z,22.50
2023-04-08T11:29:53.252Z,22.50
2023-04-08T11:30:53.292Z,22.50
2023-04-08T11:31:53.691Z,22.50
2023-04-08T11:32:53.380Z,22.50
2023-04-08T11:33:53.471Z,22.50
2023-04-08T11:34:53.236Z,22.50
2023-04-08T11:35:53.286Z,22.50
2023-04-08T11:36:53.269Z,22.50
2023-04-08T11:37:53.215Z,22.50
2023-04-08T11:38:53.213Z,22.50
2023-04-08T11:39:53.203Z,22.50
2023-04-08T11:40:53.201Z,22.50
2023-04-08T11:41:53.220Z,22.50
2023-04-08T11:42:53.209Z,22.50
2023-04-08T11:43:53.185Z,22.50
2023-04-08T11:44:53.188Z,22.50
2023-04-08T11:45:53.179Z,22.50
2023-04-08T11:46:53.284Z,22.50
2023-04-08T11:47:53.164Z,22.50
2023-04-08T11:48:53.164Z,22.50
2023-04-08T11:49:53.159Z,22.50
2023-04-08T11:50:53.155Z,22.50
2023-04-08T11:51:53.149Z,22.50
2023-04-08T11:52:53.228Z,22.50
2023-04-08T11:53:55.899Z,22.50
2023-04-08T11:54:53.146Z,16.88
2023-04-08T11:55:53.132Z,16.88
2023-04-08T11:56:53.130Z,16.88
2023-04-08T11:57:53.120Z,22.50
2023-04-08T11:58:53.136Z,22.50
2023-04-08T11:59:53.113Z,22.50
2023-04-08T12:00:53.119Z,22.50
2023-04-08T12:01:53.172Z,22.50
2023-04-08T12:02:53.185Z,16.88
2023-04-08T12:03:53.314Z,16.88
2023-04-08T12:04:53.124Z,16.88
2023-04-08T12:05:53.087Z,16.88
2023-04-08T12:06:53.092Z,22.50
2023-04-08T12:07:53.079Z,22.50
2023-04-08T12:08:53.110Z,22.50
2023-04-08T12:09:53.068Z,16.88
2023-04-08T12:10:53.064Z,16.88
2023-04-08T12:11:53.057Z,22.50
2023-04-08T12:12:53.056Z,22.50
2023-04-08T12:13:53.329Z,22.50
2023-04-08T12:14:53.053Z,22.50
2023-04-08T12:15:53.047Z,22.50
2023-04-08T12:16:53.037Z,22.50
2023-04-08T12:17:53.046Z,22.50
2023-04-08T12:18:53.027Z,22.50
2023-04-08T12:19:53.017Z,16.88
2023-04-08T12:20:53.016Z,16.88
2023-04-08T12:21:53.009Z,16.88
2023-04-08T12:22:53.009Z,16.88
2023-04-08T12:23:53.237Z,16.88
2023-04-08T12:24:53.028Z,16.88
2023-04-08T12:25:52.993Z,16.88
2023-04-08T12:26:52.989Z,22.50
2023-04-08T12:27:52.986Z,22.50
2023-04-08T12:28:52.988Z,16.88
2023-04-08T12:29:52.979Z,16.88
2023-04-08T12:30:52.968Z,16.88
2023-04-08T12:31:53.062Z,16.88
2023-04-08T12:32:53.000Z,22.50
2023-04-08T12:33:53.082Z,28.13
2023-04-08T12:34:52.952Z,28.13
2023-04-08T12:35:52.977Z,28.13
2023-04-08T12:36:52.947Z,28.13
2023-04-08T12:37:52.937Z,28.13
2023-04-08T12:38:53.077Z,28.13
2023-04-08T12:39:52.930Z,28.13
2023-04-08T12:40:52.964Z,28.13
2023-04-08T12:41:52.932Z,28.13
2023-04-08T12:42:52.925Z,28.13
2023-04-08T12:43:52.912Z,28.13
2023-04-08T12:44:52.914Z,28.13
2023-04-08T12:45:52.902Z,28.13
2023-04-08T12:46:52.953Z,28.13
2023-04-08T12:47:52.956Z,28.13
2023-04-08T12:49:03.296Z,28.13
2023-04-08T12:49:52.883Z,28.13
2023-04-08T12:50:52.883Z,28.13
2023-04-08T12:51:52.884Z,28.13
2023-04-08T12:52:52.875Z,28.13
2023-04-08T12:53:52.868Z,22.50
2023-04-08T12:54:52.867Z,22.50
2023-04-08T12:55:52.861Z,22.50
2023-04-08T12:56:52.875Z,22.50
2023-04-08T12:57:52.848Z,16.88
2023-04-08T12:58:52.995Z,22.50
2023-04-08T12:59:52.844Z,22.50
2023-04-08T13:00:52.910Z,22.50
2023-04-08T13:01:52.860Z,22.50
2023-04-08T13:02:52.888Z,22.50
2023-04-08T13:03:52.889Z,28.13
2023-04-08T13:04:52.821Z,28.13
2023-04-08T13:05:52.811Z,28.13
2023-04-08T13:06:52.824Z,28.13